sensor_id;sensor_type;location;lat;lon;timestamp;P1;durP1;ratioP1;P2;durP2;ratioP2
3487;SDS011;38546;48.170;11.724;2023-03-24T00:01:20;5.20;;;4.20;;
3487;SDS011;38546;48.170;11.724;2023-03-24T00:04:09;4.83;;;4.07;;
3487;SDS011;38546;48.170;11.724;2023-03-24T00:06:59;4.57;;;4.20;;
3487;SDS011;38546;48.170;11.724;2023-03-24T00:09:51;4.53;;;3.93;;
3487;SDS011;38546;48.170;11.724;2023-03-24T00:12:41;4.23;;;3.80;;
3487;SDS011;38546;48.170;11.724;2023-03-24T00:15:31;3.97;;;3.67;;
3487;SDS011;38546;48.170;11.724;2023-03-24T00:18:21;4.33;;;3.93;;
3487;SDS011;38546;48.170;11.724;2023-03-24T00:21:13;6.23;;;4.23;;
3487;SDS011;38546;48.170;11.724;2023-03-24T00:24:03;6.63;;;4.63;;
3487;SDS011;38546;48.170;11.724;2023-03-24T00:26:55;6.30;;;5.10;;
3487;SDS011;38546;48.170;11.724;2023-03-24T00:29:45;4.90;;;4.30;;
3487;SDS011;38546;48.170;11.724;2023-03-24T00:32:34;5.70;;;4.80;;
3487;SDS011;38546;48.170;11.724;2023-03-24T00:35:26;6.20;;;4.50;;
3487;SDS011;38546;48.170;11.724;2023-03-24T00:38:16;9.87;;;4.90;;
3487;SDS011;38546;48.170;11.724;2023-03-24T00:41:07;8.10;;;5.07;;
3487;SDS011;38546;48.170;11.724;2023-03-24T00:44:00;7.13;;;4.97;;
3487;SDS011;38546;48.170;11.724;2023-03-24T00:46:54;7.67;;;5.10;;
3487;SDS011;38546;48.170;11.724;2023-03-24T00:49:43;8.17;;;5.90;;
3487;SDS011;38546;48.170;11.724;2023-03-24T00:52:32;6.60;;;5.47;;
3487;SDS011;38546;48.170;11.724;2023-03-24T00:55:22;6.47;;;5.07;;
3487;SDS011;38546;48.170;11.724;2023-03-24T00:58:12;7.30;;;4.73;;
3487;SDS011;38546;48.170;11.724;2023-03-24T01:01:06;8.43;;;5.33;;
3487;SDS011;38546;48.170;11.724;2023-03-24T01:03:55;7.43;;;5.30;;
3487;SDS011;38546;48.170;11.724;2023-03-24T01:06:44;7.20;;;5.93;;
3487;SDS011;38546;48.170;11.724;2023-03-24T01:09:35;6.33;;;4.60;;
3487;SDS011;38546;48.170;11.724;2023-03-24T01:12:26;4.80;;;4.30;;
3487;SDS011;38546;48.170;11.724;2023-03-24T01:15:19;5.20;;;4.60;;
3487;SDS011;38546;48.170;11.724;2023-03-24T01:18:12;6.07;;;4.60;;
3487;SDS011;38546;48.170;11.724;2023-03-24T01:21:02;4.77;;;4.17;;
3487;SDS011;38546;48.170;11.724;2023-03-24T01:23:52;5.63;;;3.93;;
3487;SDS011;38546;48.170;11.724;2023-03-24T01:26:42;5.93;;;5.33;;
3487;SDS011;38546;48.170;11.724;2023-03-24T01:29:32;8.13;;;5.77;;
3487;SDS011;38546;48.170;11.724;2023-03-24T01:32:21;5.37;;;4.70;;
3487;SDS011;38546;48.170;11.724;2023-03-24T01:35:10;5.73;;;4.80;;
3487;SDS011;38546;48.170;11.724;2023-03-24T01:38:03;5.80;;;5.07;;
3487;SDS011;38546;48.170;11.724;2023-03-24T01:40:55;5.30;;;4.73;;
3487;SDS011;38546;48.170;11.724;2023-03-24T01:43:44;6.20;;;5.33;;
3487;SDS011;38546;48.170;11.724;2023-03-24T01:46:33;4.87;;;4.40;;
3487;SDS011;38546;48.170;11.724;2023-03-24T01:49:23;9.80;;;5.10;;
3487;SDS011;38546;48.170;11.724;2023-03-24T01:52:34;5.27;;;4.37;;
3487;SDS011;38546;48.170;11.724;2023-03-24T01:55:25;6.53;;;4.70;;
3487;SDS011;38546;48.170;11.724;2023-03-24T01:58:15;6.47;;;4.67;;
3487;SDS011;38546;48.170;11.724;2023-03-24T02:01:06;5.63;;;5.00;;
3487;SDS011;38546;48.170;11.724;2023-03-24T02:03:55;4.40;;;4.10;;
3487;SDS011;38546;48.170;11.724;2023-03-24T02:06:47;5.43;;;4.90;;
3487;SDS011;38546;48.170;11.724;2023-03-24T02:09:36;6.10;;;5.33;;
3487;SDS011;38546;48.170;11.724;2023-03-24T02:12:25;5.83;;;5.27;;
3487;SDS011;38546;48.170;11.724;2023-03-24T02:15:15;6.27;;;4.90;;
3487;SDS011;38546;48.170;11.724;2023-03-24T02:18:12;4.53;;;4.13;;
3487;SDS011;38546;48.170;11.724;2023-03-24T02:21:37;6.33;;;4.80;;
3487;SDS011;38546;48.170;11.724;2023-03-24T02:31:02;6.73;;;4.20;;
3487;SDS011;38546;48.170;11.724;2023-03-24T02:42:35;4.17;;;3.83;;
3487;SDS011;38546;48.170;11.724;2023-03-24T02:46:06;7.63;;;6.33;;
3487;SDS011;38546;48.170;11.724;2023-03-24T02:59:03;5.10;;;3.93;;
3487;SDS011;38546;48.170;11.724;2023-03-24T03:02:02;4.97;;;4.30;;
3487;SDS011;38546;48.170;11.724;2023-03-24T03:05:03;6.43;;;4.60;;
3487;SDS011;38546;48.170;11.724;2023-03-24T03:08:06;5.13;;;4.63;;
3487;SDS011;38546;48.170;11.724;2023-03-24T03:10:57;7.97;;;5.67;;
3487;SDS011;38546;48.170;11.724;2023-03-24T03:13:55;5.80;;;4.23;;
3487;SDS011;38546;48.170;11.724;2023-03-24T03:16:53;7.27;;;5.40;;
3487;SDS011;38546;48.170;11.724;2023-03-24T03:19:50;6.00;;;5.13;;
3487;SDS011;38546;48.170;11.724;2023-03-24T03:22:50;4.93;;;4.43;;
3487;SDS011;38546;48.170;11.724;2023-03-24T03:25:46;5.00;;;4.10;;
3487;SDS011;38546;48.170;11.724;2023-03-24T03:28:41;5.87;;;3.90;;
3487;SDS011;38546;48.170;11.724;2023-03-24T03:31:48;6.83;;;5.10;;
3487;SDS011;38546;48.170;11.724;2023-03-24T03:38:43;8.07;;;4.40;;
3487;SDS011;38546;48.170;11.724;2023-03-24T03:42:18;4.60;;;4.20;;
3487;SDS011;38546;48.170;11.724;2023-03-24T03:45:08;5.30;;;4.67;;
3487;SDS011;38546;48.170;11.724;2023-03-24T03:47:58;8.20;;;4.07;;
3487;SDS011;38546;48.170;11.724;2023-03-24T03:50:48;5.20;;;4.70;;
3487;SDS011;38546;48.170;11.724;2023-03-24T03:56:48;8.77;;;5.23;;
3487;SDS011;38546;48.170;11.724;2023-03-24T03:59:38;7.43;;;5.17;;
3487;SDS011;38546;48.170;11.724;2023-03-24T04:07:40;5.80;;;5.10;;
3487;SDS011;38546;48.170;11.724;2023-03-24T04:20:29;6.30;;;4.50;;
3487;SDS011;38546;48.170;11.724;2023-03-24T04:23:40;4.23;;;3.83;;
3487;SDS011;38546;48.170;11.724;2023-03-24T04:27:08;4.77;;;4.37;;
3487;SDS011;38546;48.170;11.724;2023-03-24T04:30:46;3.97;;;3.57;;
3487;SDS011;38546;48.170;11.724;2023-03-24T04:33:47;4.33;;;3.43;;
3487;SDS011;38546;48.170;11.724;2023-03-24T04:36:51;7.30;;;5.13;;
3487;SDS011;38546;48.170;11.724;2023-03-24T04:39:50;5.30;;;4.17;;
3487;SDS011;38546;48.170;11.724;2023-03-24T04:42:47;11.20;;;3.97;;
3487;SDS011;38546;48.170;11.724;2023-03-24T04:45:40;6.40;;;5.27;;
3487;SDS011;38546;48.170;11.724;2023-03-24T04:48:30;5.77;;;4.57;;
3487;SDS011;38546;48.170;11.724;2023-03-24T04:51:19;4.47;;;4.07;;
3487;SDS011;38546;48.170;11.724;2023-03-24T04:54:09;6.00;;;4.30;;
3487;SDS011;38546;48.170;11.724;2023-03-24T04:57:00;5.37;;;4.13;;
3487;SDS011;38546;48.170;11.724;2023-03-24T04:59:49;5.73;;;5.03;;
3487;SDS011;38546;48.170;11.724;2023-03-24T05:02:40;4.57;;;4.13;;
3487;SDS011;38546;48.170;11.724;2023-03-24T05:05:29;4.80;;;4.37;;
3487;SDS011;38546;48.170;11.724;2023-03-24T05:08:19;4.60;;;4.20;;
3487;SDS011;38546;48.170;11.724;2023-03-24T05:11:09;4.93;;;4.43;;
3487;SDS011;38546;48.170;11.724;2023-03-24T05:13:58;10.90;;;4.73;;
3487;SDS011;38546;48.170;11.724;2023-03-24T05:16:47;5.97;;;5.23;;
3487;SDS011;38546;48.170;11.724;2023-03-24T05:19:37;4.53;;;4.13;;
3487;SDS011;38546;48.170;11.724;2023-03-24T05:22:26;7.47;;;5.30;;
3487;SDS011;38546;48.170;11.724;2023-03-24T05:25:15;5.40;;;4.90;;
3487;SDS011;38546;48.170;11.724;2023-03-24T05:28:05;5.43;;;4.10;;
3487;SDS011;38546;48.170;11.724;2023-03-24T05:30:54;7.10;;;5.80;;
3487;SDS011;38546;48.170;11.724;2023-03-24T05:33:43;6.67;;;5.20;;
3487;SDS011;38546;48.170;11.724;2023-03-24T05:36:33;7.63;;;5.60;;
3487;SDS011;38546;48.170;11.724;2023-03-24T05:39:22;5.17;;;4.60;;
3487;SDS011;38546;48.170;11.724;2023-03-24T05:42:11;7.60;;;4.93;;
3487;SDS011;38546;48.170;11.724;2023-03-24T05:45:00;6.60;;;4.70;;
3487;SDS011;38546;48.170;11.724;2023-03-24T05:47:49;12.97;;;7.00;;
3487;SDS011;38546;48.170;11.724;2023-03-24T05:50:38;7.10;;;5.07;;
3487;SDS011;38546;48.170;11.724;2023-03-24T05:53:27;5.97;;;5.40;;
3487;SDS011;38546;48.170;11.724;2023-03-24T05:56:16;8.37;;;5.63;;
3487;SDS011;38546;48.170;11.724;2023-03-24T05:59:05;8.67;;;5.97;;
3487;SDS011;38546;48.170;11.724;2023-03-24T06:01:54;6.87;;;5.90;;
3487;SDS011;38546;48.170;11.724;2023-03-24T06:04:46;7.83;;;5.23;;
3487;SDS011;38546;48.170;11.724;2023-03-24T06:07:36;8.30;;;5.57;;
3487;SDS011;38546;48.170;11.724;2023-03-24T06:10:29;8.87;;;5.70;;
3487;SDS011;38546;48.170;11.724;2023-03-24T06:13:18;11.10;;;5.10;;
3487;SDS011;38546;48.170;11.724;2023-03-24T06:16:07;4.00;;;3.70;;
3487;SDS011;38546;48.170;11.724;2023-03-24T06:18:57;8.13;;;4.20;;
3487;SDS011;38546;48.170;11.724;2023-03-24T06:21:46;4.70;;;4.20;;
3487;SDS011;38546;48.170;11.724;2023-03-24T06:24:38;5.27;;;4.37;;
3487;SDS011;38546;48.170;11.724;2023-03-24T06:27:27;6.30;;;5.00;;
3487;SDS011;38546;48.170;11.724;2023-03-24T06:30:17;7.20;;;4.73;;
3487;SDS011;38546;48.170;11.724;2023-03-24T06:33:06;6.93;;;5.00;;
3487;SDS011;38546;48.170;11.724;2023-03-24T06:35:55;9.40;;;6.17;;
3487;SDS011;38546;48.170;11.724;2023-03-24T06:38:44;7.83;;;5.73;;
3487;SDS011;38546;48.170;11.724;2023-03-24T06:41:33;6.47;;;5.43;;
3487;SDS011;38546;48.170;11.724;2023-03-24T06:44:22;7.40;;;5.20;;
3487;SDS011;38546;48.170;11.724;2023-03-24T06:47:12;6.30;;;5.00;;
3487;SDS011;38546;48.170;11.724;2023-03-24T06:50:00;7.30;;;6.03;;
3487;SDS011;38546;48.170;11.724;2023-03-24T06:52:50;8.10;;;5.70;;
3487;SDS011;38546;48.170;11.724;2023-03-24T06:55:41;9.73;;;5.57;;
3487;SDS011;38546;48.170;11.724;2023-03-24T06:58:30;7.30;;;5.40;;
3487;SDS011;38546;48.170;11.724;2023-03-24T07:01:19;13.10;;;6.57;;
3487;SDS011;38546;48.170;11.724;2023-03-24T07:04:08;8.37;;;6.27;;
3487;SDS011;38546;48.170;11.724;2023-03-24T07:06:57;10.57;;;6.83;;
3487;SDS011;38546;48.170;11.724;2023-03-24T07:09:47;12.30;;;6.00;;
3487;SDS011;38546;48.170;11.724;2023-03-24T07:12:38;8.17;;;5.50;;
3487;SDS011;38546;48.170;11.724;2023-03-24T07:15:28;8.70;;;5.70;;
3487;SDS011;38546;48.170;11.724;2023-03-24T07:18:17;8.57;;;5.33;;
3487;SDS011;38546;48.170;11.724;2023-03-24T07:21:07;6.90;;;5.70;;
3487;SDS011;38546;48.170;11.724;2023-03-24T07:23:56;6.80;;;5.53;;
3487;SDS011;38546;48.170;11.724;2023-03-24T07:26:46;7.70;;;5.80;;
3487;SDS011;38546;48.170;11.724;2023-03-24T07:29:35;7.57;;;5.40;;
3487;SDS011;38546;48.170;11.724;2023-03-24T07:32:24;7.93;;;5.67;;
3487;SDS011;38546;48.170;11.724;2023-03-24T07:35:16;9.03;;;5.97;;
3487;SDS011;38546;48.170;11.724;2023-03-24T07:38:05;6.50;;;5.43;;
3487;SDS011;38546;48.170;11.724;2023-03-24T07:40:57;7.77;;;5.53;;
3487;SDS011;38546;48.170;11.724;2023-03-24T07:43:47;11.00;;;6.80;;
3487;SDS011;38546;48.170;11.724;2023-03-24T07:46:35;6.37;;;5.23;;
3487;SDS011;38546;48.170;11.724;2023-03-24T07:49:24;13.70;;;8.17;;
3487;SDS011;38546;48.170;11.724;2023-03-24T07:52:14;13.93;;;8.80;;
3487;SDS011;38546;48.170;11.724;2023-03-24T07:55:03;13.93;;;8.17;;
3487;SDS011;38546;48.170;11.724;2023-03-24T07:57:55;10.47;;;7.03;;
3487;SDS011;38546;48.170;11.724;2023-03-24T08:00:44;7.03;;;6.17;;
3487;SDS011;38546;48.170;11.724;2023-03-24T08:03:33;11.00;;;7.90;;
3487;SDS011;38546;48.170;11.724;2023-03-24T08:06:24;9.70;;;6.17;;
3487;SDS011;38546;48.170;11.724;2023-03-24T08:09:13;8.17;;;5.90;;
3487;SDS011;38546;48.170;11.724;2023-03-24T08:12:02;9.90;;;6.43;;
3487;SDS011;38546;48.170;11.724;2023-03-24T08:14:51;7.50;;;5.80;;
3487;SDS011;38546;48.170;11.724;2023-03-24T08:17:40;10.50;;;6.40;;
3487;SDS011;38546;48.170;11.724;2023-03-24T08:20:30;12.20;;;6.47;;
3487;SDS011;38546;48.170;11.724;2023-03-24T08:23:20;8.67;;;5.93;;
3487;SDS011;38546;48.170;11.724;2023-03-24T08:26:09;7.47;;;5.93;;
3487;SDS011;38546;48.170;11.724;2023-03-24T08:28:58;8.80;;;6.43;;
3487;SDS011;38546;48.170;11.724;2023-03-24T08:31:47;15.00;;;7.27;;
3487;SDS011;38546;48.170;11.724;2023-03-24T08:34:36;8.53;;;6.50;;
3487;SDS011;38546;48.170;11.724;2023-03-24T08:37:25;10.40;;;7.03;;
3487;SDS011;38546;48.170;11.724;2023-03-24T08:40:16;8.87;;;6.33;;
3487;SDS011;38546;48.170;11.724;2023-03-24T08:43:14;7.57;;;5.97;;
3487;SDS011;38546;48.170;11.724;2023-03-24T08:46:06;7.37;;;6.47;;
3487;SDS011;38546;48.170;11.724;2023-03-24T08:48:57;9.67;;;7.13;;
3487;SDS011;38546;48.170;11.724;2023-03-24T08:51:48;14.07;;;9.97;;
3487;SDS011;38546;48.170;11.724;2023-03-24T08:54:37;12.90;;;8.50;;
3487;SDS011;38546;48.170;11.724;2023-03-24T08:57:26;15.80;;;8.20;;
3487;SDS011;38546;48.170;11.724;2023-03-24T09:00:15;11.97;;;7.73;;
3487;SDS011;38546;48.170;11.724;2023-03-24T09:03:08;10.37;;;7.53;;
3487;SDS011;38546;48.170;11.724;2023-03-24T09:06:01;9.93;;;5.43;;
3487;SDS011;38546;48.170;11.724;2023-03-24T09:08:51;7.83;;;6.00;;
3487;SDS011;38546;48.170;11.724;2023-03-24T09:11:41;10.20;;;6.30;;
3487;SDS011;38546;48.170;11.724;2023-03-24T09:14:31;7.77;;;6.27;;
3487;SDS011;38546;48.170;11.724;2023-03-24T09:17:21;6.07;;;5.00;;
3487;SDS011;38546;48.170;11.724;2023-03-24T09:20:11;9.07;;;6.70;;
3487;SDS011;38546;48.170;11.724;2023-03-24T09:23:03;6.10;;;5.60;;
3487;SDS011;38546;48.170;11.724;2023-03-24T09:25:52;7.50;;;6.07;;
3487;SDS011;38546;48.170;11.724;2023-03-24T09:28:42;10.33;;;5.97;;
3487;SDS011;38546;48.170;11.724;2023-03-24T09:31:31;7.00;;;5.20;;
3487;SDS011;38546;48.170;11.724;2023-03-24T09:34:21;5.80;;;5.20;;
3487;SDS011;38546;48.170;11.724;2023-03-24T09:37:11;6.80;;;4.30;;
3487;SDS011;38546;48.170;11.724;2023-03-24T09:40:00;4.87;;;4.33;;
3487;SDS011;38546;48.170;11.724;2023-03-24T09:47:36;5.27;;;4.73;;
3487;SDS011;38546;48.170;11.724;2023-03-24T09:50:34;5.90;;;5.10;;
3487;SDS011;38546;48.170;11.724;2023-03-24T09:53:41;7.90;;;4.70;;
3487;SDS011;38546;48.170;11.724;2023-03-24T09:57:44;5.53;;;5.03;;
3487;SDS011;38546;48.170;11.724;2023-03-24T10:00:38;6.50;;;4.50;;
3487;SDS011;38546;48.170;11.724;2023-03-24T10:03:29;5.20;;;4.70;;
3487;SDS011;38546;48.170;11.724;2023-03-24T10:06:25;7.10;;;4.97;;
3487;SDS011;38546;48.170;11.724;2023-03-24T10:09:23;5.70;;;4.43;;
3487;SDS011;38546;48.170;11.724;2023-03-24T10:12:38;4.23;;;3.93;;
3487;SDS011;38546;48.170;11.724;2023-03-24T10:15:35;7.00;;;4.40;;
3487;SDS011;38546;48.170;11.724;2023-03-24T10:18:52;6.47;;;4.30;;
3487;SDS011;38546;48.170;11.724;2023-03-24T10:27:04;8.37;;;4.80;;
3487;SDS011;38546;48.170;11.724;2023-03-24T10:30:33;7.80;;;5.00;;
3487;SDS011;38546;48.170;11.724;2023-03-24T10:33:26;6.13;;;4.87;;
3487;SDS011;38546;48.170;11.724;2023-03-24T10:36:16;7.73;;;5.90;;
3487;SDS011;38546;48.170;11.724;2023-03-24T10:39:10;8.50;;;6.63;;
3487;SDS011;38546;48.170;11.724;2023-03-24T10:42:03;7.17;;;5.13;;
3487;SDS011;38546;48.170;11.724;2023-03-24T10:44:53;9.20;;;6.77;;
3487;SDS011;38546;48.170;11.724;2023-03-24T10:47:43;8.67;;;6.37;;
3487;SDS011;38546;48.170;11.724;2023-03-24T10:50:33;6.73;;;5.53;;
3487;SDS011;38546;48.170;11.724;2023-03-24T10:53:23;6.23;;;5.03;;
3487;SDS011;38546;48.170;11.724;2023-03-24T10:56:16;8.47;;;5.73;;
3487;SDS011;38546;48.170;11.724;2023-03-24T10:59:36;13.80;;;6.70;;
3487;SDS011;38546;48.170;11.724;2023-03-24T11:04:19;6.83;;;5.50;;
3487;SDS011;38546;48.170;11.724;2023-03-24T11:07:21;5.77;;;4.73;;
3487;SDS011;38546;48.170;11.724;2023-03-24T11:10:47;4.53;;;3.90;;
3487;SDS011;38546;48.170;11.724;2023-03-24T11:13:37;4.83;;;4.43;;
3487;SDS011;38546;48.170;11.724;2023-03-24T11:16:28;4.03;;;3.40;;
3487;SDS011;38546;48.170;11.724;2023-03-24T11:19:26;3.70;;;3.17;;
3487;SDS011;38546;48.170;11.724;2023-03-24T11:22:15;6.10;;;3.67;;
3487;SDS011;38546;48.170;11.724;2023-03-24T11:25:07;5.50;;;4.83;;
3487;SDS011;38546;48.170;11.724;2023-03-24T11:28:08;3.77;;;3.47;;
3487;SDS011;38546;48.170;11.724;2023-03-24T11:31:11;3.60;;;3.20;;
3487;SDS011;38546;48.170;11.724;2023-03-24T11:34:13;4.00;;;3.37;;
3487;SDS011;38546;48.170;11.724;2023-03-24T11:40:24;3.20;;;2.97;;
3487;SDS011;38546;48.170;11.724;2023-03-24T11:43:18;4.40;;;4.00;;
3487;SDS011;38546;48.170;11.724;2023-03-24T11:46:15;6.20;;;3.60;;
3487;SDS011;38546;48.170;11.724;2023-03-24T11:49:08;4.03;;;3.57;;
3487;SDS011;38546;48.170;11.724;2023-03-24T11:52:01;7.23;;;3.80;;
3487;SDS011;38546;48.170;11.724;2023-03-24T11:54:56;4.00;;;3.67;;
3487;SDS011;38546;48.170;11.724;2023-03-24T11:57:53;5.53;;;4.10;;
3487;SDS011;38546;48.170;11.724;2023-03-24T12:03:31;6.67;;;4.20;;
3487;SDS011;38546;48.170;11.724;2023-03-24T12:14:13;4.53;;;4.03;;
3487;SDS011;38546;48.170;11.724;2023-03-24T12:18:24;3.47;;;3.17;;
3487;SDS011;38546;48.170;11.724;2023-03-24T12:21:39;3.13;;;2.93;;
3487;SDS011;38546;48.170;11.724;2023-03-24T12:34:33;2.73;;;2.53;;
3487;SDS011;38546;48.170;11.724;2023-03-24T12:48:44;4.00;;;3.50;;
3487;SDS011;38546;48.170;11.724;2023-03-24T12:55:03;5.07;;;2.50;;
3487;SDS011;38546;48.170;11.724;2023-03-24T13:01:47;3.80;;;3.37;;
3487;SDS011;38546;48.170;11.724;2023-03-24T13:04:49;3.97;;;3.67;;
3487;SDS011;38546;48.170;11.724;2023-03-24T13:07:44;3.30;;;3.00;;
3487;SDS011;38546;48.170;11.724;2023-03-24T13:10:41;4.00;;;3.20;;
3487;SDS011;38546;48.170;11.724;2023-03-24T13:13:33;3.20;;;2.70;;
3487;SDS011;38546;48.170;11.724;2023-03-24T13:16:28;2.60;;;2.40;;
3487;SDS011;38546;48.170;11.724;2023-03-24T13:19:22;2.30;;;2.20;;
3487;SDS011;38546;48.170;11.724;2023-03-24T13:22:14;2.40;;;2.20;;
3487;SDS011;38546;48.170;11.724;2023-03-24T13:28:38;2.77;;;2.57;;
3487;SDS011;38546;48.170;11.724;2023-03-24T13:31:51;2.80;;;2.57;;
3487;SDS011;38546;48.170;11.724;2023-03-24T13:40:19;3.90;;;2.90;;
3487;SDS011;38546;48.170;11.724;2023-03-24T13:43:17;4.13;;;3.23;;
3487;SDS011;38546;48.170;11.724;2023-03-24T13:46:11;3.13;;;2.90;;
3487;SDS011;38546;48.170;11.724;2023-03-24T13:49:02;3.50;;;3.20;;
3487;SDS011;38546;48.170;11.724;2023-03-24T13:51:54;4.63;;;2.80;;
3487;SDS011;38546;48.170;11.724;2023-03-24T13:54:43;2.87;;;2.57;;
3487;SDS011;38546;48.170;11.724;2023-03-24T13:57:39;3.10;;;2.90;;
3487;SDS011;38546;48.170;11.724;2023-03-24T14:01:14;3.03;;;2.80;;
3487;SDS011;38546;48.170;11.724;2023-03-24T14:04:24;2.63;;;2.43;;
3487;SDS011;38546;48.170;11.724;2023-03-24T14:07:41;4.93;;;2.77;;
3487;SDS011;38546;48.170;11.724;2023-03-24T14:10:38;4.43;;;3.57;;
3487;SDS011;38546;48.170;11.724;2023-03-24T14:13:44;3.47;;;2.57;;
3487;SDS011;38546;48.170;11.724;2023-03-24T14:16:48;2.37;;;2.13;;
3487;SDS011;38546;48.170;11.724;2023-03-24T14:20:27;3.73;;;1.63;;
3487;SDS011;38546;48.170;11.724;2023-03-24T14:23:32;2.40;;;2.17;;
3487;SDS011;38546;48.170;11.724;2023-03-24T14:26:38;1.90;;;1.80;;
3487;SDS011;38546;48.170;11.724;2023-03-24T14:29:34;1.97;;;1.87;;
3487;SDS011;38546;48.170;11.724;2023-03-24T14:32:26;2.07;;;1.97;;
3487;SDS011;38546;48.170;11.724;2023-03-24T14:35:21;1.70;;;1.60;;
3487;SDS011;38546;48.170;11.724;2023-03-24T14:39:25;1.30;;;1.30;;
3487;SDS011;38546;48.170;11.724;2023-03-24T14:46:49;2.00;;;1.60;;
3487;SDS011;38546;48.170;11.724;2023-03-24T14:49:40;1.57;;;1.47;;
3487;SDS011;38546;48.170;11.724;2023-03-24T14:52:33;1.30;;;1.30;;
3487;SDS011;38546;48.170;11.724;2023-03-24T14:55:28;1.30;;;1.30;;
3487;SDS011;38546;48.170;11.724;2023-03-24T14:58:31;2.00;;;1.57;;
3487;SDS011;38546;48.170;11.724;2023-03-24T15:01:26;1.50;;;1.40;;
3487;SDS011;38546;48.170;11.724;2023-03-24T15:04:21;1.77;;;1.67;;
3487;SDS011;38546;48.170;11.724;2023-03-24T15:07:10;1.87;;;1.70;;
3487;SDS011;38546;48.170;11.724;2023-03-24T15:10:01;4.50;;;4.10;;
3487;SDS011;38546;48.170;11.724;2023-03-24T15:12:50;3.27;;;2.87;;
3487;SDS011;38546;48.170;11.724;2023-03-24T15:15:45;3.53;;;2.33;;
3487;SDS011;38546;48.170;11.724;2023-03-24T15:18:35;3.87;;;2.17;;
3487;SDS011;38546;48.170;11.724;2023-03-24T15:21:45;1.90;;;1.70;;
3487;SDS011;38546;48.170;11.724;2023-03-24T15:24:37;1.83;;;1.70;;
3487;SDS011;38546;48.170;11.724;2023-03-24T15:27:29;5.83;;;4.23;;
3487;SDS011;38546;48.170;11.724;2023-03-24T15:30:20;2.07;;;1.70;;
3487;SDS011;38546;48.170;11.724;2023-03-24T15:33:10;1.83;;;1.57;;
3487;SDS011;38546;48.170;11.724;2023-03-24T15:36:01;1.57;;;1.47;;
3487;SDS011;38546;48.170;11.724;2023-03-24T15:38:51;2.50;;;2.30;;
3487;SDS011;38546;48.170;11.724;2023-03-24T15:41:40;2.90;;;2.70;;
3487;SDS011;38546;48.170;11.724;2023-03-24T15:44:29;3.70;;;2.80;;
3487;SDS011;38546;48.170;11.724;2023-03-24T15:47:23;2.33;;;2.13;;
3487;SDS011;38546;48.170;11.724;2023-03-24T15:50:27;2.20;;;2.00;;
3487;SDS011;38546;48.170;11.724;2023-03-24T15:53:25;2.10;;;2.00;;
3487;SDS011;38546;48.170;11.724;2023-03-24T15:56:27;1.80;;;1.70;;
3487;SDS011;38546;48.170;11.724;2023-03-24T15:59:19;2.60;;;2.00;;
3487;SDS011;38546;48.170;11.724;2023-03-24T16:02:10;3.00;;;2.67;;
3487;SDS011;38546;48.170;11.724;2023-03-24T16:05:27;1.40;;;1.30;;
3487;SDS011;38546;48.170;11.724;2023-03-24T16:08:30;4.00;;;3.60;;
3487;SDS011;38546;48.170;11.724;2023-03-24T16:11:23;1.77;;;1.67;;
3487;SDS011;38546;48.170;11.724;2023-03-24T16:14:25;2.10;;;2.00;;
3487;SDS011;38546;48.170;11.724;2023-03-24T16:17:17;1.93;;;1.80;;
3487;SDS011;38546;48.170;11.724;2023-03-24T16:20:08;1.40;;;1.40;;
3487;SDS011;38546;48.170;11.724;2023-03-24T16:23:08;2.70;;;1.40;;
3487;SDS011;38546;48.170;11.724;2023-03-24T16:25:58;1.80;;;1.70;;
3487;SDS011;38546;48.170;11.724;2023-03-24T16:28:48;1.80;;;1.70;;
3487;SDS011;38546;48.170;11.724;2023-03-24T16:31:38;1.83;;;1.73;;
3487;SDS011;38546;48.170;11.724;2023-03-24T16:34:27;1.80;;;1.70;;
3487;SDS011;38546;48.170;11.724;2023-03-24T16:37:17;4.10;;;1.80;;
3487;SDS011;38546;48.170;11.724;2023-03-24T16:40:27;2.60;;;2.20;;
3487;SDS011;38546;48.170;11.724;2023-03-24T16:43:25;2.47;;;2.30;;
3487;SDS011;38546;48.170;11.724;2023-03-24T16:46:16;2.33;;;2.23;;
3487;SDS011;38546;48.170;11.724;2023-03-24T16:49:17;3.50;;;2.90;;
3487;SDS011;38546;48.170;11.724;2023-03-24T16:52:11;2.67;;;2.43;;
3487;SDS011;38546;48.170;11.724;2023-03-24T16:55:01;3.33;;;3.03;;
3487;SDS011;38546;48.170;11.724;2023-03-24T16:57:52;4.70;;;2.80;;
3487;SDS011;38546;48.170;11.724;2023-03-24T17:00:42;3.90;;;3.00;;
3487;SDS011;38546;48.170;11.724;2023-03-24T17:03:32;2.97;;;2.67;;
3487;SDS011;38546;48.170;11.724;2023-03-24T17:06:23;3.87;;;2.73;;
3487;SDS011;38546;48.170;11.724;2023-03-24T17:09:13;4.87;;;2.60;;
3487;SDS011;38546;48.170;11.724;2023-03-24T17:12:03;3.07;;;2.80;;
3487;SDS011;38546;48.170;11.724;2023-03-24T17:14:52;5.03;;;2.70;;
3487;SDS011;38546;48.170;11.724;2023-03-24T17:17:41;4.40;;;2.20;;
3487;SDS011;38546;48.170;11.724;2023-03-24T17:20:30;3.13;;;2.90;;
3487;SDS011;38546;48.170;11.724;2023-03-24T17:23:19;3.00;;;2.80;;
3487;SDS011;38546;48.170;11.724;2023-03-24T17:26:09;3.20;;;2.90;;
3487;SDS011;38546;48.170;11.724;2023-03-24T17:28:58;2.90;;;2.37;;
3487;SDS011;38546;48.170;11.724;2023-03-24T17:31:47;2.60;;;2.10;;
3487;SDS011;38546;48.170;11.724;2023-03-24T17:34:36;1.93;;;1.73;;
3487;SDS011;38546;48.170;11.724;2023-03-24T17:37:26;2.00;;;1.90;;
3487;SDS011;38546;48.170;11.724;2023-03-24T17:40:18;3.70;;;2.20;;
3487;SDS011;38546;48.170;11.724;2023-03-24T17:43:08;2.50;;;2.03;;
3487;SDS011;38546;48.170;11.724;2023-03-24T17:45:57;2.13;;;2.00;;
3487;SDS011;38546;48.170;11.724;2023-03-24T17:48:47;1.70;;;1.60;;
3487;SDS011;38546;48.170;11.724;2023-03-24T17:51:36;4.63;;;2.13;;
3487;SDS011;38546;48.170;11.724;2023-03-24T17:54:25;1.57;;;1.40;;
3487;SDS011;38546;48.170;11.724;2023-03-24T17:57:15;0.97;;;0.97;;
3487;SDS011;38546;48.170;11.724;2023-03-24T18:00:05;1.30;;;1.30;;
3487;SDS011;38546;48.170;11.724;2023-03-24T18:02:59;1.60;;;1.50;;
3487;SDS011;38546;48.170;11.724;2023-03-24T18:05:48;1.53;;;1.43;;
3487;SDS011;38546;48.170;11.724;2023-03-24T18:08:37;2.40;;;1.43;;
3487;SDS011;38546;48.170;11.724;2023-03-24T18:11:27;1.83;;;1.20;;
3487;SDS011;38546;48.170;11.724;2023-03-24T18:14:16;1.33;;;1.33;;
3487;SDS011;38546;48.170;11.724;2023-03-24T18:17:06;2.03;;;1.20;;
3487;SDS011;38546;48.170;11.724;2023-03-24T18:19:57;1.53;;;1.43;;
3487;SDS011;38546;48.170;11.724;2023-03-24T18:22:55;1.70;;;1.60;;
3487;SDS011;38546;48.170;11.724;2023-03-24T18:25:43;1.60;;;1.50;;
3487;SDS011;38546;48.170;11.724;2023-03-24T18:28:33;1.43;;;1.17;;
3487;SDS011;38546;48.170;11.724;2023-03-24T18:31:24;1.20;;;1.10;;
3487;SDS011;38546;48.170;11.724;2023-03-24T18:34:14;1.30;;;1.20;;
3487;SDS011;38546;48.170;11.724;2023-03-24T18:37:05;1.10;;;1.10;;
3487;SDS011;38546;48.170;11.724;2023-03-24T18:39:54;1.53;;;1.43;;
3487;SDS011;38546;48.170;11.724;2023-03-24T18:42:43;1.63;;;1.53;;
3487;SDS011;38546;48.170;11.724;2023-03-24T18:45:33;1.20;;;1.20;;
3487;SDS011;38546;48.170;11.724;2023-03-24T18:48:22;2.30;;;1.80;;
3487;SDS011;38546;48.170;11.724;2023-03-24T18:51:12;1.80;;;1.70;;
3487;SDS011;38546;48.170;11.724;2023-03-24T18:54:03;1.37;;;1.37;;
3487;SDS011;38546;48.170;11.724;2023-03-24T18:56:53;1.90;;;1.80;;
3487;SDS011;38546;48.170;11.724;2023-03-24T18:59:42;2.60;;;1.60;;
3487;SDS011;38546;48.170;11.724;2023-03-24T19:02:31;1.50;;;1.40;;
3487;SDS011;38546;48.170;11.724;2023-03-24T19:05:20;1.30;;;1.30;;
3487;SDS011;38546;48.170;11.724;2023-03-24T19:08:09;1.67;;;1.57;;
3487;SDS011;38546;48.170;11.724;2023-03-24T19:11:02;1.83;;;1.73;;
3487;SDS011;38546;48.170;11.724;2023-03-24T19:13:54;1.30;;;1.30;;
3487;SDS011;38546;48.170;11.724;2023-03-24T19:16:44;2.43;;;1.43;;
3487;SDS011;38546;48.170;11.724;2023-03-24T19:19:33;1.90;;;1.80;;
3487;SDS011;38546;48.170;11.724;2023-03-24T19:22:23;1.70;;;1.60;;
3487;SDS011;38546;48.170;11.724;2023-03-24T19:25:14;2.10;;;1.47;;